Magic Sun — D54895U — position and weather

sailwx.info

Track history (hours):
 
Tides and Currents Weather Stations Pressure Air Temp Water Temp Dewpoint Dewpoint Depression Visibility Wind Speed Wind Dir Waves Ship Positions

Magic Sun

Last reported at 2016-Sep-25 12:31 UTC. Time now 2016-Sep-29 22:05 UTC.
Position N 49°29' E 000°06'.

Length 10 m.

Type: Sailing vessel. MMSI: 227018810.

Date/timePositionNaut miles runAvg speedWind from/ knotsBaromVisibWave heightAir tempDewpointWater temp
2016-Sep-25 12:31N 49°29' E 000°06'0 0.0
2016-Sep-25 11:31N 49°29' E 000°06'1 1.0
2016-Sep-25 10:33N 49°29' E 000°04'6 6.1
2016-Sep-25 09:33N 49°31' W 000°05'10 5.1
2016-Sep-25 07:33N 49°26' W 000°19'6 0.4
2016-Sep-24 14:19N 49°21' W 000°24'10 5.9
2016-Sep-24 12:33N 49°25' W 000°09'11 5.5
2016-Sep-24 10:33N 49°29' E 000°06'0 0.0
2016-Sep-24 09:33N 49°29' E 000°06'  
Track history (hours):
 
Tides and Currents Weather Stations Pressure Air Temp Water Temp Dewpoint Dewpoint Depression Visibility Wind Speed Wind Dir Waves Ship Positions

Magic Sun

Last reported at 2016-Sep-25 12:31 UTC. Time now 2016-Sep-29 22:05 UTC.
Position N 49°29' E 000°06'.

Length 10 m.

Type: Sailing vessel. MMSI: 227018810.

Date/timePositionNaut miles runAvg speedWind from/ knotsBaromVisibWave heightAir tempDewpointWater temp
2016-Sep-25 12:31N 49°29' E 000°06'0 0.0
2016-Sep-25 11:31N 49°29' E 000°06'1 1.0
2016-Sep-25 10:33N 49°29' E 000°04'6 6.1
2016-Sep-25 09:33N 49°31' W 000°05'10 5.1
2016-Sep-25 07:33N 49°26' W 000°19'6 0.4
2016-Sep-24 14:19N 49°21' W 000°24'10 5.9
2016-Sep-24 12:33N 49°25' W 000°09'11 5.5
2016-Sep-24 10:33N 49°29' E 000°06'0 0.0
2016-Sep-24 09:33N 49°29' E 000°06'  

Dump ship's entire track history